Basin, Idaho
Current Conditions -  °F | °C
As of 1:53 AM on Monday 24 Nov 2014 (Local Time) from KBYI Reporting Station
Clear Clear  
Wind Chill: 24°   Ceiling: Unl
Heat Index: 33°   Visibility: 10mi
Dew Point: 25°   Wind: 13mph
Humidity: 72%   Direction: 260°W
Pressure: 30.15"   Gusts: 20mph
Location:  42.2256°N, 114.022°W
Report Text: KBYI 240853Z AUTO 26011G17KT 10SM CLR 01/M04 A3015 RMK AO2 SLP221 T00061039 53002
Loading
Personal Weather Stations






























Interactive Weather Map New forecast layout! Learn more

10-Day Weather Forecast

Advertisements
Track Severe Weather on mobile